sensor_id;sensor_type;location;lat;lon;timestamp;P1;durP1;ratioP1;P2;durP2;ratioP2
29916;SDS011;16786;49.466;11.068;2022-10-23T00:01:14;13.90;;;7.07;;
29916;SDS011;16786;49.466;11.068;2022-10-23T00:03:42;12.27;;;6.50;;
29916;SDS011;16786;49.466;11.068;2022-10-23T00:06:11;11.38;;;6.32;;
29916;SDS011;16786;49.466;11.068;2022-10-23T00:08:39;12.55;;;6.45;;
29916;SDS011;16786;49.466;11.068;2022-10-23T00:11:07;9.18;;;5.47;;
29916;SDS011;16786;49.466;11.068;2022-10-23T00:13:36;8.73;;;5.40;;
29916;SDS011;16786;49.466;11.068;2022-10-23T00:16:04;7.82;;;5.22;;
29916;SDS011;16786;49.466;11.068;2022-10-23T00:18:32;9.77;;;5.60;;
29916;SDS011;16786;49.466;11.068;2022-10-23T00:21:00;10.38;;;5.43;;
29916;SDS011;16786;49.466;11.068;2022-10-23T00:23:28;11.15;;;5.80;;
29916;SDS011;16786;49.466;11.068;2022-10-23T00:25:55;10.13;;;5.80;;
29916;SDS011;16786;49.466;11.068;2022-10-23T00:28:23;11.63;;;5.90;;
29916;SDS011;16786;49.466;11.068;2022-10-23T00:30:51;11.63;;;5.50;;
29916;SDS011;16786;49.466;11.068;2022-10-23T00:33:18;9.27;;;5.85;;
29916;SDS011;16786;49.466;11.068;2022-10-23T00:35:46;12.50;;;5.68;;
29916;SDS011;16786;49.466;11.068;2022-10-23T00:38:13;10.48;;;5.30;;
29916;SDS011;16786;49.466;11.068;2022-10-23T00:40:40;10.48;;;5.75;;
29916;SDS011;16786;49.466;11.068;2022-10-23T00:43:15;12.70;;;5.95;;
29916;SDS011;16786;49.466;11.068;2022-10-23T00:45:44;10.50;;;6.20;;
29916;SDS011;16786;49.466;11.068;2022-10-23T00:48:12;8.57;;;5.65;;
29916;SDS011;16786;49.466;11.068;2022-10-23T00:50:40;8.77;;;5.60;;
29916;SDS011;16786;49.466;11.068;2022-10-23T00:53:07;10.80;;;5.32;;
29916;SDS011;16786;49.466;11.068;2022-10-23T00:55:37;9.05;;;5.43;;
29916;SDS011;16786;49.466;11.068;2022-10-23T00:58:07;9.02;;;5.50;;
29916;SDS011;16786;49.466;11.068;2022-10-23T01:00:42;10.77;;;5.57;;
29916;SDS011;16786;49.466;11.068;2022-10-23T01:03:14;10.27;;;6.20;;
29916;SDS011;16786;49.466;11.068;2022-10-23T01:08:18;11.63;;;6.22;;
29916;SDS011;16786;49.466;11.068;2022-10-23T01:11:11;10.68;;;5.65;;
29916;SDS011;16786;49.466;11.068;2022-10-23T01:14:02;10.80;;;5.63;;
29916;SDS011;16786;49.466;11.068;2022-10-23T01:16:45;13.32;;;5.93;;
29916;SDS011;16786;49.466;11.068;2022-10-23T01:19:20;8.20;;;5.85;;
29916;SDS011;16786;49.466;11.068;2022-10-23T01:21:54;12.20;;;5.78;;
29916;SDS011;16786;49.466;11.068;2022-10-23T01:30:01;8.80;;;5.43;;
29916;SDS011;16786;49.466;11.068;2022-10-23T01:35:15;14.77;;;6.10;;
29916;SDS011;16786;49.466;11.068;2022-10-23T01:43:25;7.45;;;5.25;;
29916;SDS011;16786;49.466;11.068;2022-10-23T01:46:03;6.45;;;4.85;;
29916;SDS011;16786;49.466;11.068;2022-10-23T01:48:36;8.75;;;5.72;;
29916;SDS011;16786;49.466;11.068;2022-10-23T01:51:05;7.75;;;5.18;;
29916;SDS011;16786;49.466;11.068;2022-10-23T01:53:36;12.13;;;5.45;;
29916;SDS011;16786;49.466;11.068;2022-10-23T01:56:10;8.52;;;5.18;;
29916;SDS011;16786;49.466;11.068;2022-10-23T02:01:09;11.40;;;5.30;;
29916;SDS011;16786;49.466;11.068;2022-10-23T02:03:46;7.72;;;4.95;;
29916;SDS011;16786;49.466;11.068;2022-10-23T02:06:15;8.45;;;4.93;;
29916;SDS011;16786;49.466;11.068;2022-10-23T02:08:43;10.82;;;5.25;;
29916;SDS011;16786;49.466;11.068;2022-10-23T02:11:14;10.13;;;4.82;;
29916;SDS011;16786;49.466;11.068;2022-10-23T02:20:06;10.25;;;5.32;;
29916;SDS011;16786;49.466;11.068;2022-10-23T02:22:22;10.27;;;4.65;;
29916;SDS011;16786;49.466;11.068;2022-10-23T02:25:03;7.38;;;4.72;;
29916;SDS011;16786;49.466;11.068;2022-10-23T02:27:47;12.63;;;5.05;;
29916;SDS011;16786;49.466;11.068;2022-10-23T02:30:19;7.15;;;4.78;;
29916;SDS011;16786;49.466;11.068;2022-10-23T02:32:54;6.57;;;4.95;;
29916;SDS011;16786;49.466;11.068;2022-10-23T02:35:23;10.80;;;5.80;;
29916;SDS011;16786;49.466;11.068;2022-10-23T02:38:00;9.68;;;5.45;;
29916;SDS011;16786;49.466;11.068;2022-10-23T02:40:31;8.52;;;5.03;;
29916;SDS011;16786;49.466;11.068;2022-10-23T02:43:10;8.93;;;5.20;;
29916;SDS011;16786;49.466;11.068;2022-10-23T02:45:58;10.10;;;5.38;;
29916;SDS011;16786;49.466;11.068;2022-10-23T02:48:37;8.20;;;5.25;;
29916;SDS011;16786;49.466;11.068;2022-10-23T02:51:29;8.15;;;5.10;;
29916;SDS011;16786;49.466;11.068;2022-10-23T02:54:21;11.93;;;5.47;;
29916;SDS011;16786;49.466;11.068;2022-10-23T02:57:02;9.98;;;5.13;;
29916;SDS011;16786;49.466;11.068;2022-10-23T02:59:33;7.40;;;5.15;;
29916;SDS011;16786;49.466;11.068;2022-10-23T03:02:27;9.73;;;5.70;;
29916;SDS011;16786;49.466;11.068;2022-10-23T03:05:11;10.43;;;5.00;;
29916;SDS011;16786;49.466;11.068;2022-10-23T03:07:42;7.90;;;4.95;;
29916;SDS011;16786;49.466;11.068;2022-10-23T03:10:10;10.02;;;5.30;;
29916;SDS011;16786;49.466;11.068;2022-10-23T03:12:37;10.98;;;5.68;;
29916;SDS011;16786;49.466;11.068;2022-10-23T03:15:06;7.38;;;4.80;;
29916;SDS011;16786;49.466;11.068;2022-10-23T03:17:34;9.60;;;5.03;;
29916;SDS011;16786;49.466;11.068;2022-10-23T03:20:02;9.25;;;5.30;;
29916;SDS011;16786;49.466;11.068;2022-10-23T03:22:31;9.13;;;5.60;;
29916;SDS011;16786;49.466;11.068;2022-10-23T03:24:59;8.02;;;5.65;;
29916;SDS011;16786;49.466;11.068;2022-10-23T03:27:28;9.68;;;5.40;;
29916;SDS011;16786;49.466;11.068;2022-10-23T03:29:57;8.02;;;5.50;;
29916;SDS011;16786;49.466;11.068;2022-10-23T03:32:24;9.02;;;4.85;;
29916;SDS011;16786;49.466;11.068;2022-10-23T03:34:52;9.27;;;5.20;;
29916;SDS011;16786;49.466;11.068;2022-10-23T03:37:21;8.57;;;5.10;;
29916;SDS011;16786;49.466;11.068;2022-10-23T03:39:49;8.65;;;5.30;;
29916;SDS011;16786;49.466;11.068;2022-10-23T03:42:16;10.10;;;5.15;;
29916;SDS011;16786;49.466;11.068;2022-10-23T03:44:43;6.75;;;4.93;;
29916;SDS011;16786;49.466;11.068;2022-10-23T03:47:11;12.00;;;5.47;;
29916;SDS011;16786;49.466;11.068;2022-10-23T03:49:40;12.43;;;5.63;;
29916;SDS011;16786;49.466;11.068;2022-10-23T03:52:07;9.50;;;5.90;;
29916;SDS011;16786;49.466;11.068;2022-10-23T03:54:34;10.30;;;5.78;;
29916;SDS011;16786;49.466;11.068;2022-10-23T03:57:02;8.82;;;5.93;;
29916;SDS011;16786;49.466;11.068;2022-10-23T03:59:29;11.82;;;6.32;;
29916;SDS011;16786;49.466;11.068;2022-10-23T04:01:58;13.52;;;6.35;;
29916;SDS011;16786;49.466;11.068;2022-10-23T04:04:25;8.80;;;6.50;;
29916;SDS011;16786;49.466;11.068;2022-10-23T04:06:53;9.10;;;6.45;;
29916;SDS011;16786;49.466;11.068;2022-10-23T04:09:21;10.38;;;5.95;;
29916;SDS011;16786;49.466;11.068;2022-10-23T04:11:48;8.88;;;5.43;;
29916;SDS011;16786;49.466;11.068;2022-10-23T04:14:15;14.18;;;6.30;;
29916;SDS011;16786;49.466;11.068;2022-10-23T04:16:43;9.70;;;6.10;;
29916;SDS011;16786;49.466;11.068;2022-10-23T04:19:10;6.70;;;4.78;;
29916;SDS011;16786;49.466;11.068;2022-10-23T04:21:37;9.90;;;5.45;;
29916;SDS011;16786;49.466;11.068;2022-10-23T04:24:05;7.13;;;5.35;;
29916;SDS011;16786;49.466;11.068;2022-10-23T04:26:32;10.45;;;5.60;;
29916;SDS011;16786;49.466;11.068;2022-10-23T04:28:59;8.60;;;5.85;;
29916;SDS011;16786;49.466;11.068;2022-10-23T04:31:28;10.48;;;5.80;;
29916;SDS011;16786;49.466;11.068;2022-10-23T04:33:55;10.07;;;5.60;;
29916;SDS011;16786;49.466;11.068;2022-10-23T04:36:28;13.70;;;6.25;;
29916;SDS011;16786;49.466;11.068;2022-10-23T04:39:01;11.57;;;5.55;;
29916;SDS011;16786;49.466;11.068;2022-10-23T04:41:28;8.65;;;5.18;;
29916;SDS011;16786;49.466;11.068;2022-10-23T04:43:55;9.88;;;5.60;;
29916;SDS011;16786;49.466;11.068;2022-10-23T04:46:23;11.32;;;5.93;;
29916;SDS011;16786;49.466;11.068;2022-10-23T04:48:50;9.65;;;5.75;;
29916;SDS011;16786;49.466;11.068;2022-10-23T04:51:36;9.23;;;5.22;;
29916;SDS011;16786;49.466;11.068;2022-10-23T04:54:11;9.68;;;5.22;;
29916;SDS011;16786;49.466;11.068;2022-10-23T04:56:38;12.27;;;5.78;;
29916;SDS011;16786;49.466;11.068;2022-10-23T04:59:10;9.65;;;5.75;;
29916;SDS011;16786;49.466;11.068;2022-10-23T05:01:39;8.95;;;5.32;;
29916;SDS011;16786;49.466;11.068;2022-10-23T05:04:07;8.10;;;5.35;;
29916;SDS011;16786;49.466;11.068;2022-10-23T05:06:58;9.35;;;5.70;;
29916;SDS011;16786;49.466;11.068;2022-10-23T05:09:41;9.80;;;5.88;;
29916;SDS011;16786;49.466;11.068;2022-10-23T05:12:21;9.82;;;5.35;;
29916;SDS011;16786;49.466;11.068;2022-10-23T05:14:51;10.45;;;5.80;;
29916;SDS011;16786;49.466;11.068;2022-10-23T05:17:19;9.32;;;5.68;;
29916;SDS011;16786;49.466;11.068;2022-10-23T05:19:58;8.98;;;5.45;;
29916;SDS011;16786;49.466;11.068;2022-10-23T05:22:29;8.63;;;5.55;;
29916;SDS011;16786;49.466;11.068;2022-10-23T05:24:59;9.20;;;5.65;;
29916;SDS011;16786;49.466;11.068;2022-10-23T05:27:30;12.35;;;6.07;;
29916;SDS011;16786;49.466;11.068;2022-10-23T05:29:57;8.93;;;4.95;;
29916;SDS011;16786;49.466;11.068;2022-10-23T05:32:28;7.15;;;4.97;;
29916;SDS011;16786;49.466;11.068;2022-10-23T05:34:58;6.75;;;4.47;;
29916;SDS011;16786;49.466;11.068;2022-10-23T05:37:29;8.10;;;5.40;;
29916;SDS011;16786;49.466;11.068;2022-10-23T05:40:17;8.10;;;4.90;;
29916;SDS011;16786;49.466;11.068;2022-10-23T05:42:46;8.70;;;5.50;;
29916;SDS011;16786;49.466;11.068;2022-10-23T05:45:18;8.82;;;5.18;;
29916;SDS011;16786;49.466;11.068;2022-10-23T05:48:04;6.93;;;4.80;;
29916;SDS011;16786;49.466;11.068;2022-10-23T05:51:07;11.25;;;5.45;;
29916;SDS011;16786;49.466;11.068;2022-10-23T05:54:11;7.60;;;5.50;;
29916;SDS011;16786;49.466;11.068;2022-10-23T05:56:44;9.80;;;5.50;;
29916;SDS011;16786;49.466;11.068;2022-10-23T05:59:27;9.55;;;5.47;;
29916;SDS011;16786;49.466;11.068;2022-10-23T06:02:18;9.43;;;5.80;;
29916;SDS011;16786;49.466;11.068;2022-10-23T06:04:58;9.73;;;5.25;;
29916;SDS011;16786;49.466;11.068;2022-10-23T06:07:44;10.20;;;6.00;;
29916;SDS011;16786;49.466;11.068;2022-10-23T06:10:12;7.80;;;5.50;;
29916;SDS011;16786;49.466;11.068;2022-10-23T06:12:43;8.68;;;6.55;;
29916;SDS011;16786;49.466;11.068;2022-10-23T06:15:14;9.98;;;6.60;;
29916;SDS011;16786;49.466;11.068;2022-10-23T06:18:04;10.35;;;5.25;;
29916;SDS011;16786;49.466;11.068;2022-10-23T06:20:35;8.25;;;5.85;;
29916;SDS011;16786;49.466;11.068;2022-10-23T06:23:21;9.00;;;5.15;;
29916;SDS011;16786;49.466;11.068;2022-10-23T06:26:00;6.53;;;5.03;;
29916;SDS011;16786;49.466;11.068;2022-10-23T06:28:36;8.70;;;5.60;;
29916;SDS011;16786;49.466;11.068;2022-10-23T06:31:04;9.02;;;5.40;;
29916;SDS011;16786;49.466;11.068;2022-10-23T06:33:35;7.25;;;5.35;;
29916;SDS011;16786;49.466;11.068;2022-10-23T06:36:04;7.15;;;5.00;;
29916;SDS011;16786;49.466;11.068;2022-10-23T06:38:38;7.50;;;5.15;;
29916;SDS011;16786;49.466;11.068;2022-10-23T06:41:10;10.75;;;4.68;;
29916;SDS011;16786;49.466;11.068;2022-10-23T06:43:41;9.13;;;4.90;;
29916;SDS011;16786;49.466;11.068;2022-10-23T06:46:12;9.27;;;5.03;;
29916;SDS011;16786;49.466;11.068;2022-10-23T06:49:02;8.13;;;5.38;;
29916;SDS011;16786;49.466;11.068;2022-10-23T06:51:34;13.85;;;5.43;;
29916;SDS011;16786;49.466;11.068;2022-10-23T06:54:03;11.25;;;5.63;;
29916;SDS011;16786;49.466;11.068;2022-10-23T06:56:57;10.57;;;7.55;;
29916;SDS011;16786;49.466;11.068;2022-10-23T07:02:08;10.27;;;6.72;;
29916;SDS011;16786;49.466;11.068;2022-10-23T07:04:36;10.50;;;6.15;;
29916;SDS011;16786;49.466;11.068;2022-10-23T07:07:10;9.45;;;6.57;;
29916;SDS011;16786;49.466;11.068;2022-10-23T07:09:43;10.45;;;5.18;;
29916;SDS011;16786;49.466;11.068;2022-10-23T07:12:26;7.18;;;4.90;;
29916;SDS011;16786;49.466;11.068;2022-10-23T07:15:13;7.90;;;4.72;;
29916;SDS011;16786;49.466;11.068;2022-10-23T07:17:42;7.30;;;5.10;;
29916;SDS011;16786;49.466;11.068;2022-10-23T07:20:09;9.85;;;5.85;;
29916;SDS011;16786;49.466;11.068;2022-10-23T07:22:36;9.75;;;5.78;;
29916;SDS011;16786;49.466;11.068;2022-10-23T07:25:10;7.85;;;5.57;;
29916;SDS011;16786;49.466;11.068;2022-10-23T07:27:39;9.23;;;5.57;;
29916;SDS011;16786;49.466;11.068;2022-10-23T07:30:08;8.23;;;5.50;;
29916;SDS011;16786;49.466;11.068;2022-10-23T07:32:45;10.18;;;5.85;;
29916;SDS011;16786;49.466;11.068;2022-10-23T07:35:31;9.95;;;5.75;;
29916;SDS011;16786;49.466;11.068;2022-10-23T07:38:10;12.65;;;6.28;;
29916;SDS011;16786;49.466;11.068;2022-10-23T07:40:45;9.15;;;5.75;;
29916;SDS011;16786;49.466;11.068;2022-10-23T07:43:15;7.65;;;4.93;;
29916;SDS011;16786;49.466;11.068;2022-10-23T07:45:47;8.02;;;5.32;;
29916;SDS011;16786;49.466;11.068;2022-10-23T07:48:22;11.00;;;5.88;;
29916;SDS011;16786;49.466;11.068;2022-10-23T07:50:57;11.77;;;7.28;;
29916;SDS011;16786;49.466;11.068;2022-10-23T07:53:30;8.60;;;5.90;;
29916;SDS011;16786;49.466;11.068;2022-10-23T07:56:18;7.00;;;5.18;;
29916;SDS011;16786;49.466;11.068;2022-10-23T07:59:09;8.93;;;6.05;;
29916;SDS011;16786;49.466;11.068;2022-10-23T08:01:42;7.65;;;4.60;;
29916;SDS011;16786;49.466;11.068;2022-10-23T08:04:11;6.32;;;4.50;;
29916;SDS011;16786;49.466;11.068;2022-10-23T08:06:47;8.70;;;5.80;;
29916;SDS011;16786;49.466;11.068;2022-10-23T08:09:15;9.68;;;6.15;;
29916;SDS011;16786;49.466;11.068;2022-10-23T08:11:42;11.57;;;5.82;;
29916;SDS011;16786;49.466;11.068;2022-10-23T08:14:13;10.65;;;7.35;;
29916;SDS011;16786;49.466;11.068;2022-10-23T08:16:42;9.25;;;5.65;;
29916;SDS011;16786;49.466;11.068;2022-10-23T08:19:16;8.18;;;5.40;;
29916;SDS011;16786;49.466;11.068;2022-10-23T08:21:45;9.55;;;5.88;;
29916;SDS011;16786;49.466;11.068;2022-10-23T08:24:13;8.63;;;5.03;;
29916;SDS011;16786;49.466;11.068;2022-10-23T08:26:43;6.90;;;4.45;;
29916;SDS011;16786;49.466;11.068;2022-10-23T08:29:11;5.40;;;3.70;;
29916;SDS011;16786;49.466;11.068;2022-10-23T08:31:40;6.85;;;4.00;;
29916;SDS011;16786;49.466;11.068;2022-10-23T08:34:21;16.90;;;4.57;;
29916;SDS011;16786;49.466;11.068;2022-10-23T08:36:51;6.40;;;4.40;;
29916;SDS011;16786;49.466;11.068;2022-10-23T08:39:18;6.68;;;3.85;;
29916;SDS011;16786;49.466;11.068;2022-10-23T08:42:05;6.15;;;3.70;;
29916;SDS011;16786;49.466;11.068;2022-10-23T08:47:45;8.10;;;4.75;;
29916;SDS011;16786;49.466;11.068;2022-10-23T08:50:53;8.45;;;4.30;;
29916;SDS011;16786;49.466;11.068;2022-10-23T08:53:32;5.35;;;3.10;;
29916;SDS011;16786;49.466;11.068;2022-10-23T08:58:50;5.32;;;3.08;;
29916;SDS011;16786;49.466;11.068;2022-10-23T09:01:41;6.35;;;3.53;;
29916;SDS011;16786;49.466;11.068;2022-10-23T09:04:17;5.22;;;3.10;;
29916;SDS011;16786;49.466;11.068;2022-10-23T09:09:41;6.72;;;3.58;;
29916;SDS011;16786;49.466;11.068;2022-10-23T09:12:22;7.00;;;3.33;;
29916;SDS011;16786;49.466;11.068;2022-10-23T09:18:00;5.47;;;2.67;;
29916;SDS011;16786;49.466;11.068;2022-10-23T09:20:38;4.57;;;2.40;;
29916;SDS011;16786;49.466;11.068;2022-10-23T09:23:20;4.93;;;2.42;;
29916;SDS011;16786;49.466;11.068;2022-10-23T09:25:50;5.38;;;2.08;;
29916;SDS011;16786;49.466;11.068;2022-10-23T09:28:33;2.92;;;2.17;;
29916;SDS011;16786;49.466;11.068;2022-10-23T09:31:07;3.75;;;1.98;;
29916;SDS011;16786;49.466;11.068;2022-10-23T09:33:37;4.47;;;2.50;;
29916;SDS011;16786;49.466;11.068;2022-10-23T09:36:06;3.30;;;2.30;;
29916;SDS011;16786;49.466;11.068;2022-10-23T09:38:47;4.85;;;3.53;;
29916;SDS011;16786;49.466;11.068;2022-10-23T09:41:18;5.10;;;3.88;;
29916;SDS011;16786;49.466;11.068;2022-10-23T09:44:01;4.05;;;2.70;;
29916;SDS011;16786;49.466;11.068;2022-10-23T09:46:47;2.20;;;1.92;;
29916;SDS011;16786;49.466;11.068;2022-10-23T09:49:26;3.88;;;2.35;;
29916;SDS011;16786;49.466;11.068;2022-10-23T09:55:00;5.68;;;2.42;;
29916;SDS011;16786;49.466;11.068;2022-10-23T09:57:41;5.47;;;3.60;;
29916;SDS011;16786;49.466;11.068;2022-10-23T10:06:02;2.97;;;2.25;;
29916;SDS011;16786;49.466;11.068;2022-10-23T10:08:42;7.30;;;5.35;;
29916;SDS011;16786;49.466;11.068;2022-10-23T10:14:17;6.18;;;2.90;;
29916;SDS011;16786;49.466;11.068;2022-10-23T10:17:05;4.40;;;2.83;;
29916;SDS011;16786;49.466;11.068;2022-10-23T10:23:02;3.63;;;2.63;;
29916;SDS011;16786;49.466;11.068;2022-10-23T10:31:40;3.75;;;2.78;;
29916;SDS011;16786;49.466;11.068;2022-10-23T10:45:38;7.20;;;4.28;;
29916;SDS011;16786;49.466;11.068;2022-10-23T10:51:41;11.13;;;6.88;;
29916;SDS011;16786;49.466;11.068;2022-10-23T10:56:52;6.43;;;2.95;;
29916;SDS011;16786;49.466;11.068;2022-10-23T10:59:26;6.15;;;3.35;;
29916;SDS011;16786;49.466;11.068;2022-10-23T11:07:10;3.83;;;3.00;;
29916;SDS011;16786;49.466;11.068;2022-10-23T11:09:44;4.65;;;3.08;;
29916;SDS011;16786;49.466;11.068;2022-10-23T11:12:17;4.05;;;3.10;;
29916;SDS011;16786;49.466;11.068;2022-10-23T11:14:49;3.65;;;2.88;;
29916;SDS011;16786;49.466;11.068;2022-10-23T11:17:25;4.70;;;3.50;;
29916;SDS011;16786;49.466;11.068;2022-10-23T11:23:40;6.20;;;5.30;;
29916;SDS011;16786;49.466;11.068;2022-10-23T11:31:23;5.82;;;3.22;;
29916;SDS011;16786;49.466;11.068;2022-10-23T11:36:45;3.80;;;3.40;;
29916;SDS011;16786;49.466;11.068;2022-10-23T11:39:23;6.85;;;4.47;;
29916;SDS011;16786;49.466;11.068;2022-10-23T11:47:29;4.72;;;3.63;;
29916;SDS011;16786;49.466;11.068;2022-10-23T11:52:36;6.20;;;4.13;;
29916;SDS011;16786;49.466;11.068;2022-10-23T11:55:29;6.25;;;3.88;;
29916;SDS011;16786;49.466;11.068;2022-10-23T11:58:08;5.70;;;4.18;;
29916;SDS011;16786;49.466;11.068;2022-10-23T12:00:51;6.93;;;4.25;;
29916;SDS011;16786;49.466;11.068;2022-10-23T12:03:37;8.18;;;4.25;;
29916;SDS011;16786;49.466;11.068;2022-10-23T12:06:13;5.03;;;3.60;;
29916;SDS011;16786;49.466;11.068;2022-10-23T12:08:55;4.20;;;3.55;;
29916;SDS011;16786;49.466;11.068;2022-10-23T12:11:43;4.68;;;3.42;;
29916;SDS011;16786;49.466;11.068;2022-10-23T12:14:26;6.55;;;3.60;;
29916;SDS011;16786;49.466;11.068;2022-10-23T12:16:53;4.32;;;3.90;;
29916;SDS011;16786;49.466;11.068;2022-10-23T12:19:22;5.90;;;3.95;;
29916;SDS011;16786;49.466;11.068;2022-10-23T12:21:52;4.25;;;3.85;;
29916;SDS011;16786;49.466;11.068;2022-10-23T12:24:28;7.68;;;4.20;;
29916;SDS011;16786;49.466;11.068;2022-10-23T12:27:08;7.50;;;6.50;;
29916;SDS011;16786;49.466;11.068;2022-10-23T12:36:03;5.13;;;4.28;;
29916;SDS011;16786;49.466;11.068;2022-10-23T12:38:38;6.38;;;4.78;;
29916;SDS011;16786;49.466;11.068;2022-10-23T12:41:20;4.45;;;3.95;;
29916;SDS011;16786;49.466;11.068;2022-10-23T12:43:57;3.90;;;3.60;;
29916;SDS011;16786;49.466;11.068;2022-10-23T12:46:33;5.35;;;3.90;;
29916;SDS011;16786;49.466;11.068;2022-10-23T12:49:21;4.78;;;3.75;;
29916;SDS011;16786;49.466;11.068;2022-10-23T12:51:54;5.78;;;4.25;;
29916;SDS011;16786;49.466;11.068;2022-10-23T12:54:23;4.97;;;4.22;;
29916;SDS011;16786;49.466;11.068;2022-10-23T12:56:51;4.57;;;4.18;;
29916;SDS011;16786;49.466;11.068;2022-10-23T12:59:20;4.20;;;3.80;;
29916;SDS011;16786;49.466;11.068;2022-10-23T13:01:52;6.22;;;3.92;;
29916;SDS011;16786;49.466;11.068;2022-10-23T13:06:57;5.57;;;4.00;;
29916;SDS011;16786;49.466;11.068;2022-10-23T13:09:33;4.20;;;3.80;;
29916;SDS011;16786;49.466;11.068;2022-10-23T13:12:31;4.03;;;3.63;;
29916;SDS011;16786;49.466;11.068;2022-10-23T13:17:37;4.20;;;3.80;;
29916;SDS011;16786;49.466;11.068;2022-10-23T13:22:43;5.53;;;4.80;;
29916;SDS011;16786;49.466;11.068;2022-10-23T13:25:20;5.22;;;3.80;;
29916;SDS011;16786;49.466;11.068;2022-10-23T13:31:21;5.05;;;3.80;;
29916;SDS011;16786;49.466;11.068;2022-10-23T13:36:27;4.47;;;3.90;;
29916;SDS011;16786;49.466;11.068;2022-10-23T13:41:26;4.35;;;3.95;;
29916;SDS011;16786;49.466;11.068;2022-10-23T13:43:56;4.57;;;4.13;;
29916;SDS011;16786;49.466;11.068;2022-10-23T13:46:23;8.15;;;4.40;;
29916;SDS011;16786;49.466;11.068;2022-10-23T13:48:53;6.68;;;4.18;;
29916;SDS011;16786;49.466;11.068;2022-10-23T13:51:22;6.00;;;3.90;;
29916;SDS011;16786;49.466;11.068;2022-10-23T13:54:17;5.10;;;3.90;;
29916;SDS011;16786;49.466;11.068;2022-10-23T13:56:47;4.55;;;4.15;;
29916;SDS011;16786;49.466;11.068;2022-10-23T13:59:15;4.72;;;4.25;;
29916;SDS011;16786;49.466;11.068;2022-10-23T14:01:43;4.85;;;4.35;;
29916;SDS011;16786;49.466;11.068;2022-10-23T14:04:13;6.63;;;4.07;;
29916;SDS011;16786;49.466;11.068;2022-10-23T14:06:42;5.85;;;5.00;;
29916;SDS011;16786;49.466;11.068;2022-10-23T14:09:10;4.53;;;3.75;;
29916;SDS011;16786;49.466;11.068;2022-10-23T14:11:43;4.70;;;4.20;;
29916;SDS011;16786;49.466;11.068;2022-10-23T14:14:10;5.55;;;4.18;;
29916;SDS011;16786;49.466;11.068;2022-10-23T14:16:37;6.85;;;4.95;;
29916;SDS011;16786;49.466;11.068;2022-10-23T14:19:05;4.88;;;4.28;;
29916;SDS011;16786;49.466;11.068;2022-10-23T14:21:33;5.47;;;4.35;;
29916;SDS011;16786;49.466;11.068;2022-10-23T14:24:01;7.38;;;4.40;;
29916;SDS011;16786;49.466;11.068;2022-10-23T14:26:28;4.40;;;4.00;;
29916;SDS011;16786;49.466;11.068;2022-10-23T14:28:56;4.43;;;4.03;;
29916;SDS011;16786;49.466;11.068;2022-10-23T14:31:32;5.70;;;4.30;;
29916;SDS011;16786;49.466;11.068;2022-10-23T14:33:59;5.80;;;4.00;;
29916;SDS011;16786;49.466;11.068;2022-10-23T14:36:27;4.82;;;3.85;;
29916;SDS011;16786;49.466;11.068;2022-10-23T14:39:15;5.10;;;4.00;;
29916;SDS011;16786;49.466;11.068;2022-10-23T14:41:42;5.97;;;4.30;;
29916;SDS011;16786;49.466;11.068;2022-10-23T14:44:10;5.40;;;4.28;;
29916;SDS011;16786;49.466;11.068;2022-10-23T14:46:37;5.25;;;4.75;;
29916;SDS011;16786;49.466;11.068;2022-10-23T14:49:04;4.97;;;4.22;;
29916;SDS011;16786;49.466;11.068;2022-10-23T14:51:32;5.38;;;4.40;;
29916;SDS011;16786;49.466;11.068;2022-10-23T14:54:01;7.20;;;3.72;;
29916;SDS011;16786;49.466;11.068;2022-10-23T14:56:31;4.93;;;4.43;;
29916;SDS011;16786;49.466;11.068;2022-10-23T14:59:01;7.50;;;4.90;;
29916;SDS011;16786;49.466;11.068;2022-10-23T15:01:40;11.50;;;8.48;;
29916;SDS011;16786;49.466;11.068;2022-10-23T15:04:13;6.15;;;4.63;;
29916;SDS011;16786;49.466;11.068;2022-10-23T15:06:41;5.10;;;4.60;;
29916;SDS011;16786;49.466;11.068;2022-10-23T15:09:09;5.80;;;4.57;;
29916;SDS011;16786;49.466;11.068;2022-10-23T15:11:36;6.25;;;4.00;;
29916;SDS011;16786;49.466;11.068;2022-10-23T15:14:04;5.38;;;4.15;;
29916;SDS011;16786;49.466;11.068;2022-10-23T15:16:31;5.80;;;4.32;;
29916;SDS011;16786;49.466;11.068;2022-10-23T15:18:59;5.57;;;4.47;;
29916;SDS011;16786;49.466;11.068;2022-10-23T15:21:26;5.30;;;4.70;;
29916;SDS011;16786;49.466;11.068;2022-10-23T15:23:53;6.07;;;4.90;;
29916;SDS011;16786;49.466;11.068;2022-10-23T15:26:21;6.60;;;5.40;;
29916;SDS011;16786;49.466;11.068;2022-10-23T15:28:53;7.15;;;4.93;;
29916;SDS011;16786;49.466;11.068;2022-10-23T15:31:44;6.22;;;5.10;;
29916;SDS011;16786;49.466;11.068;2022-10-23T15:34:16;7.47;;;4.90;;
29916;SDS011;16786;49.466;11.068;2022-10-23T15:36:45;6.57;;;5.07;;
29916;SDS011;16786;49.466;11.068;2022-10-23T15:39:15;7.82;;;4.20;;
29916;SDS011;16786;49.466;11.068;2022-10-23T15:41:45;9.77;;;5.20;;
29916;SDS011;16786;49.466;11.068;2022-10-23T15:44:14;6.00;;;4.70;;
29916;SDS011;16786;49.466;11.068;2022-10-23T15:46:42;7.68;;;5.13;;
29916;SDS011;16786;49.466;11.068;2022-10-23T15:49:10;7.38;;;5.18;;
29916;SDS011;16786;49.466;11.068;2022-10-23T15:51:39;7.85;;;5.40;;
29916;SDS011;16786;49.466;11.068;2022-10-23T15:54:08;8.75;;;4.82;;
29916;SDS011;16786;49.466;11.068;2022-10-23T15:56:38;6.43;;;5.13;;
29916;SDS011;16786;49.466;11.068;2022-10-23T15:59:06;6.57;;;5.10;;
29916;SDS011;16786;49.466;11.068;2022-10-23T16:01:33;7.03;;;4.80;;
29916;SDS011;16786;49.466;11.068;2022-10-23T16:04:00;6.93;;;4.53;;
29916;SDS011;16786;49.466;11.068;2022-10-23T16:06:28;8.20;;;5.20;;
29916;SDS011;16786;49.466;11.068;2022-10-23T16:08:55;8.10;;;5.43;;
29916;SDS011;16786;49.466;11.068;2022-10-23T16:11:24;8.32;;;5.20;;
29916;SDS011;16786;49.466;11.068;2022-10-23T16:13:53;10.00;;;5.47;;
29916;SDS011;16786;49.466;11.068;2022-10-23T16:16:22;9.68;;;5.90;;
29916;SDS011;16786;49.466;11.068;2022-10-23T16:18:50;9.20;;;5.45;;
29916;SDS011;16786;49.466;11.068;2022-10-23T16:21:21;9.35;;;6.10;;
29916;SDS011;16786;49.466;11.068;2022-10-23T16:23:51;8.85;;;6.00;;
29916;SDS011;16786;49.466;11.068;2022-10-23T16:26:19;10.82;;;6.13;;
29916;SDS011;16786;49.466;11.068;2022-10-23T16:28:55;19.50;;;15.18;;
29916;SDS011;16786;49.466;11.068;2022-10-23T16:31:24;10.25;;;6.32;;
29916;SDS011;16786;49.466;11.068;2022-10-23T16:33:52;7.22;;;5.43;;
29916;SDS011;16786;49.466;11.068;2022-10-23T16:36:20;11.88;;;5.55;;
29916;SDS011;16786;49.466;11.068;2022-10-23T16:39:08;9.57;;;5.53;;
29916;SDS011;16786;49.466;11.068;2022-10-23T16:41:55;8.15;;;5.80;;
29916;SDS011;16786;49.466;11.068;2022-10-23T16:44:29;7.88;;;4.90;;
29916;SDS011;16786;49.466;11.068;2022-10-23T16:46:58;8.20;;;5.47;;
29916;SDS011;16786;49.466;11.068;2022-10-23T16:49:26;8.82;;;5.80;;
29916;SDS011;16786;49.466;11.068;2022-10-23T16:51:55;8.20;;;5.47;;
29916;SDS011;16786;49.466;11.068;2022-10-23T16:54:24;9.27;;;6.50;;
29916;SDS011;16786;49.466;11.068;2022-10-23T16:56:51;9.38;;;5.45;;
29916;SDS011;16786;49.466;11.068;2022-10-23T16:59:18;10.20;;;6.72;;
29916;SDS011;16786;49.466;11.068;2022-10-23T17:01:46;12.85;;;7.05;;
29916;SDS011;16786;49.466;11.068;2022-10-23T17:04:13;9.68;;;6.35;;
29916;SDS011;16786;49.466;11.068;2022-10-23T17:06:41;11.43;;;6.93;;
29916;SDS011;16786;49.466;11.068;2022-10-23T17:09:08;8.90;;;6.18;;
29916;SDS011;16786;49.466;11.068;2022-10-23T17:11:36;9.68;;;5.90;;